sensor_id;sensor_type;location;lat;lon;timestamp;P1;durP1;ratioP1;P2;durP2;ratioP2
58017;SDS011;43810;50.860;19.226;2022-08-19T00:02:05;17.75;;;12.50;;
58017;SDS011;43810;50.860;19.226;2022-08-19T00:04:32;17.30;;;13.00;;
58017;SDS011;43810;50.860;19.226;2022-08-19T00:07:00;19.95;;;12.93;;
58017;SDS011;43810;50.860;19.226;2022-08-19T00:09:26;17.98;;;12.93;;
58017;SDS011;43810;50.860;19.226;2022-08-19T00:11:52;19.25;;;13.45;;
58017;SDS011;43810;50.860;19.226;2022-08-19T00:14:17;20.15;;;13.85;;
58017;SDS011;43810;50.860;19.226;2022-08-19T00:16:44;16.83;;;12.98;;
58017;SDS011;43810;50.860;19.226;2022-08-19T00:19:10;17.60;;;12.60;;
58017;SDS011;43810;50.860;19.226;2022-08-19T00:21:36;19.00;;;13.07;;
58017;SDS011;43810;50.860;19.226;2022-08-19T00:24:08;18.40;;;13.15;;
58017;SDS011;43810;50.860;19.226;2022-08-19T00:26:34;19.25;;;13.55;;
58017;SDS011;43810;50.860;19.226;2022-08-19T00:29:01;18.02;;;14.35;;
58017;SDS011;43810;50.860;19.226;2022-08-19T00:31:26;16.80;;;13.32;;
58017;SDS011;43810;50.860;19.226;2022-08-19T00:33:53;16.25;;;13.00;;
58017;SDS011;43810;50.860;19.226;2022-08-19T00:36:19;19.58;;;13.55;;
58017;SDS011;43810;50.860;19.226;2022-08-19T00:38:44;21.27;;;13.82;;
58017;SDS011;43810;50.860;19.226;2022-08-19T00:41:12;18.15;;;12.90;;
58017;SDS011;43810;50.860;19.226;2022-08-19T00:43:38;21.38;;;13.93;;
58017;SDS011;43810;50.860;19.226;2022-08-19T00:46:04;24.00;;;14.07;;
58017;SDS011;43810;50.860;19.226;2022-08-19T00:48:30;20.88;;;14.23;;
58017;SDS011;43810;50.860;19.226;2022-08-19T00:50:56;17.33;;;13.43;;
58017;SDS011;43810;50.860;19.226;2022-08-19T00:53:23;20.45;;;14.88;;
58017;SDS011;43810;50.860;19.226;2022-08-19T00:55:50;20.83;;;14.90;;
58017;SDS011;43810;50.860;19.226;2022-08-19T00:58:18;17.65;;;14.48;;
58017;SDS011;43810;50.860;19.226;2022-08-19T01:00:45;19.88;;;14.82;;
58017;SDS011;43810;50.860;19.226;2022-08-19T01:03:13;19.55;;;14.93;;
58017;SDS011;43810;50.860;19.226;2022-08-19T01:05:39;19.30;;;14.00;;
58017;SDS011;43810;50.860;19.226;2022-08-19T01:08:06;18.95;;;14.13;;
58017;SDS011;43810;50.860;19.226;2022-08-19T01:10:37;18.00;;;13.70;;
58017;SDS011;43810;50.860;19.226;2022-08-19T01:13:04;18.73;;;14.75;;
58017;SDS011;43810;50.860;19.226;2022-08-19T01:15:31;18.10;;;14.57;;
58017;SDS011;43810;50.860;19.226;2022-08-19T01:17:59;23.70;;;14.93;;
58017;SDS011;43810;50.860;19.226;2022-08-19T01:20:26;20.58;;;14.63;;
58017;SDS011;43810;50.860;19.226;2022-08-19T01:22:53;22.02;;;15.63;;
58017;SDS011;43810;50.860;19.226;2022-08-19T01:25:20;20.77;;;15.77;;
58017;SDS011;43810;50.860;19.226;2022-08-19T01:27:48;21.10;;;15.75;;
58017;SDS011;43810;50.860;19.226;2022-08-19T01:30:15;20.15;;;15.43;;
58017;SDS011;43810;50.860;19.226;2022-08-19T01:32:41;21.45;;;16.55;;
58017;SDS011;43810;50.860;19.226;2022-08-19T01:35:09;21.10;;;15.32;;
58017;SDS011;43810;50.860;19.226;2022-08-19T01:37:48;26.63;;;17.23;;
58017;SDS011;43810;50.860;19.226;2022-08-19T01:40:14;30.52;;;17.35;;
58017;SDS011;43810;50.860;19.226;2022-08-19T01:42:40;21.95;;;17.08;;
58017;SDS011;43810;50.860;19.226;2022-08-19T01:45:06;25.80;;;17.92;;
58017;SDS011;43810;50.860;19.226;2022-08-19T01:47:33;25.27;;;17.05;;
58017;SDS011;43810;50.860;19.226;2022-08-19T01:49:59;22.70;;;16.45;;
58017;SDS011;43810;50.860;19.226;2022-08-19T01:52:25;23.58;;;15.77;;
58017;SDS011;43810;50.860;19.226;2022-08-19T01:54:50;22.52;;;16.50;;
58017;SDS011;43810;50.860;19.226;2022-08-19T01:57:16;25.08;;;17.38;;
58017;SDS011;43810;50.860;19.226;2022-08-19T01:59:42;20.90;;;17.02;;
58017;SDS011;43810;50.860;19.226;2022-08-19T02:02:08;22.73;;;17.08;;
58017;SDS011;43810;50.860;19.226;2022-08-19T02:04:34;23.63;;;17.42;;
58017;SDS011;43810;50.860;19.226;2022-08-19T02:07:00;22.58;;;16.25;;
58017;SDS011;43810;50.860;19.226;2022-08-19T02:09:25;24.58;;;17.25;;
58017;SDS011;43810;50.860;19.226;2022-08-19T02:11:51;22.35;;;17.17;;
58017;SDS011;43810;50.860;19.226;2022-08-19T02:14:16;23.65;;;16.55;;
58017;SDS011;43810;50.860;19.226;2022-08-19T02:16:42;25.48;;;16.63;;
58017;SDS011;43810;50.860;19.226;2022-08-19T02:19:07;22.30;;;16.75;;
58017;SDS011;43810;50.860;19.226;2022-08-19T02:21:33;30.05;;;17.33;;
58017;SDS011;43810;50.860;19.226;2022-08-19T02:23:59;22.60;;;17.30;;
58017;SDS011;43810;50.860;19.226;2022-08-19T02:26:25;21.35;;;16.58;;
58017;SDS011;43810;50.860;19.226;2022-08-19T02:28:54;23.30;;;18.10;;
58017;SDS011;43810;50.860;19.226;2022-08-19T02:31:20;21.20;;;16.95;;
58017;SDS011;43810;50.860;19.226;2022-08-19T02:33:47;21.90;;;17.70;;
58017;SDS011;43810;50.860;19.226;2022-08-19T02:36:13;23.38;;;17.48;;
58017;SDS011;43810;50.860;19.226;2022-08-19T02:38:43;29.02;;;17.92;;
58017;SDS011;43810;50.860;19.226;2022-08-19T02:41:17;23.58;;;17.95;;
58017;SDS011;43810;50.860;19.226;2022-08-19T02:43:43;23.08;;;17.42;;
58017;SDS011;43810;50.860;19.226;2022-08-19T02:46:16;24.00;;;18.33;;
58017;SDS011;43810;50.860;19.226;2022-08-19T02:48:45;23.45;;;17.60;;
58017;SDS011;43810;50.860;19.226;2022-08-19T02:51:17;27.70;;;17.20;;
58017;SDS011;43810;50.860;19.226;2022-08-19T02:53:43;23.13;;;17.42;;
58017;SDS011;43810;50.860;19.226;2022-08-19T02:56:09;24.05;;;18.48;;
58017;SDS011;43810;50.860;19.226;2022-08-19T02:58:35;25.17;;;17.70;;
58017;SDS011;43810;50.860;19.226;2022-08-19T03:01:01;26.23;;;18.08;;
58017;SDS011;43810;50.860;19.226;2022-08-19T03:03:26;23.83;;;18.90;;
58017;SDS011;43810;50.860;19.226;2022-08-19T03:06:01;25.25;;;17.48;;
58017;SDS011;43810;50.860;19.226;2022-08-19T03:08:27;22.88;;;17.50;;
58017;SDS011;43810;50.860;19.226;2022-08-19T03:10:53;28.08;;;18.42;;
58017;SDS011;43810;50.860;19.226;2022-08-19T03:13:19;26.55;;;18.38;;
58017;SDS011;43810;50.860;19.226;2022-08-19T03:15:46;28.35;;;18.67;;
58017;SDS011;43810;50.860;19.226;2022-08-19T03:18:12;27.83;;;18.63;;
58017;SDS011;43810;50.860;19.226;2022-08-19T03:20:44;23.15;;;17.00;;
58017;SDS011;43810;50.860;19.226;2022-08-19T03:23:11;25.10;;;18.77;;
58017;SDS011;43810;50.860;19.226;2022-08-19T03:25:41;23.20;;;17.63;;
58017;SDS011;43810;50.860;19.226;2022-08-19T03:28:09;24.90;;;18.25;;
58017;SDS011;43810;50.860;19.226;2022-08-19T03:30:35;24.85;;;19.48;;
58017;SDS011;43810;50.860;19.226;2022-08-19T03:33:00;27.67;;;19.35;;
58017;SDS011;43810;50.860;19.226;2022-08-19T03:35:27;22.02;;;18.38;;
58017;SDS011;43810;50.860;19.226;2022-08-19T03:37:52;25.27;;;18.90;;
58017;SDS011;43810;50.860;19.226;2022-08-19T03:40:18;27.13;;;18.77;;
58017;SDS011;43810;50.860;19.226;2022-08-19T03:42:44;27.60;;;19.55;;
58017;SDS011;43810;50.860;19.226;2022-08-19T03:45:11;28.42;;;19.25;;
58017;SDS011;43810;50.860;19.226;2022-08-19T03:47:37;27.15;;;19.30;;
58017;SDS011;43810;50.860;19.226;2022-08-19T03:50:03;26.77;;;19.52;;
58017;SDS011;43810;50.860;19.226;2022-08-19T03:52:29;27.13;;;18.65;;
58017;SDS011;43810;50.860;19.226;2022-08-19T03:54:55;24.20;;;18.98;;
58017;SDS011;43810;50.860;19.226;2022-08-19T03:57:20;23.38;;;18.90;;
58017;SDS011;43810;50.860;19.226;2022-08-19T03:59:46;27.52;;;19.30;;
58017;SDS011;43810;50.860;19.226;2022-08-19T04:02:12;24.50;;;18.60;;
58017;SDS011;43810;50.860;19.226;2022-08-19T04:04:38;26.25;;;17.92;;
58017;SDS011;43810;50.860;19.226;2022-08-19T04:07:05;25.88;;;18.60;;
58017;SDS011;43810;50.860;19.226;2022-08-19T04:09:30;26.13;;;19.42;;
58017;SDS011;43810;50.860;19.226;2022-08-19T04:11:56;25.63;;;18.98;;
58017;SDS011;43810;50.860;19.226;2022-08-19T04:14:26;26.27;;;19.95;;
58017;SDS011;43810;50.860;19.226;2022-08-19T04:16:54;25.65;;;19.40;;
58017;SDS011;43810;50.860;19.226;2022-08-19T04:19:20;25.08;;;18.60;;
58017;SDS011;43810;50.860;19.226;2022-08-19T04:21:46;23.27;;;17.85;;
58017;SDS011;43810;50.860;19.226;2022-08-19T04:24:12;23.33;;;18.55;;
58017;SDS011;43810;50.860;19.226;2022-08-19T04:26:38;20.90;;;16.73;;
58017;SDS011;43810;50.860;19.226;2022-08-19T04:29:06;21.63;;;17.08;;
58017;SDS011;43810;50.860;19.226;2022-08-19T04:31:32;22.48;;;17.33;;
58017;SDS011;43810;50.860;19.226;2022-08-19T04:34:01;25.70;;;17.88;;
58017;SDS011;43810;50.860;19.226;2022-08-19T04:36:28;28.60;;;18.77;;
58017;SDS011;43810;50.860;19.226;2022-08-19T04:38:54;29.13;;;18.38;;
58017;SDS011;43810;50.860;19.226;2022-08-19T04:41:20;29.50;;;18.88;;
58017;SDS011;43810;50.860;19.226;2022-08-19T04:44:04;39.13;;;18.83;;
58017;SDS011;43810;50.860;19.226;2022-08-19T04:46:30;37.13;;;18.60;;
58017;SDS011;43810;50.860;19.226;2022-08-19T04:48:57;38.05;;;17.98;;
58017;SDS011;43810;50.860;19.226;2022-08-19T04:51:23;30.40;;;17.35;;
58017;SDS011;43810;50.860;19.226;2022-08-19T04:53:48;26.13;;;18.25;;
58017;SDS011;43810;50.860;19.226;2022-08-19T04:56:15;26.42;;;16.40;;
58017;SDS011;43810;50.860;19.226;2022-08-19T04:58:41;31.63;;;17.05;;
58017;SDS011;43810;50.860;19.226;2022-08-19T05:01:28;34.58;;;17.25;;
58017;SDS011;43810;50.860;19.226;2022-08-19T05:03:57;32.35;;;16.45;;
58017;SDS011;43810;50.860;19.226;2022-08-19T05:06:23;31.85;;;15.43;;
58017;SDS011;43810;50.860;19.226;2022-08-19T05:08:49;30.42;;;16.17;;
58017;SDS011;43810;50.860;19.226;2022-08-19T05:11:16;24.05;;;14.70;;
58017;SDS011;43810;50.860;19.226;2022-08-19T05:13:42;24.15;;;15.50;;
58017;SDS011;43810;50.860;19.226;2022-08-19T05:16:08;32.00;;;15.45;;
58017;SDS011;43810;50.860;19.226;2022-08-19T05:18:34;27.60;;;14.75;;
58017;SDS011;43810;50.860;19.226;2022-08-19T05:24:03;26.55;;;14.82;;
58017;SDS011;43810;50.860;19.226;2022-08-19T05:26:33;23.35;;;14.93;;
58017;SDS011;43810;50.860;19.226;2022-08-19T05:28:59;21.98;;;13.75;;
58017;SDS011;43810;50.860;19.226;2022-08-19T05:31:25;19.95;;;13.65;;
58017;SDS011;43810;50.860;19.226;2022-08-19T05:33:50;20.92;;;13.25;;
58017;SDS011;43810;50.860;19.226;2022-08-19T05:36:16;20.05;;;13.35;;
58017;SDS011;43810;50.860;19.226;2022-08-19T05:38:41;21.52;;;13.35;;
58017;SDS011;43810;50.860;19.226;2022-08-19T05:41:11;16.10;;;12.82;;
58017;SDS011;43810;50.860;19.226;2022-08-19T05:43:36;16.85;;;12.85;;
58017;SDS011;43810;50.860;19.226;2022-08-19T05:46:03;14.32;;;12.43;;
58017;SDS011;43810;50.860;19.226;2022-08-19T05:48:30;15.52;;;12.73;;
58017;SDS011;43810;50.860;19.226;2022-08-19T05:50:56;15.88;;;12.85;;
58017;SDS011;43810;50.860;19.226;2022-08-19T05:53:23;18.75;;;13.02;;
58017;SDS011;43810;50.860;19.226;2022-08-19T05:55:49;15.15;;;12.38;;
58017;SDS011;43810;50.860;19.226;2022-08-19T05:58:14;16.83;;;12.98;;
58017;SDS011;43810;50.860;19.226;2022-08-19T06:00:40;17.15;;;11.93;;
58017;SDS011;43810;50.860;19.226;2022-08-19T06:03:08;16.98;;;12.57;;
58017;SDS011;43810;50.860;19.226;2022-08-19T06:05:33;16.90;;;12.25;;
58017;SDS011;43810;50.860;19.226;2022-08-19T06:07:59;16.17;;;11.68;;
58017;SDS011;43810;50.860;19.226;2022-08-19T06:10:24;17.38;;;12.27;;
58017;SDS011;43810;50.860;19.226;2022-08-19T06:12:51;16.58;;;11.70;;
58017;SDS011;43810;50.860;19.226;2022-08-19T06:15:17;21.92;;;13.05;;
58017;SDS011;43810;50.860;19.226;2022-08-19T06:17:42;18.30;;;11.95;;
58017;SDS011;43810;50.860;19.226;2022-08-19T06:20:11;20.25;;;12.93;;
58017;SDS011;43810;50.860;19.226;2022-08-19T06:22:43;23.00;;;12.07;;
58017;SDS011;43810;50.860;19.226;2022-08-19T06:25:09;18.83;;;11.25;;
58017;SDS011;43810;50.860;19.226;2022-08-19T06:27:35;14.73;;;10.75;;
58017;SDS011;43810;50.860;19.226;2022-08-19T06:30:02;13.38;;;11.60;;
58017;SDS011;43810;50.860;19.226;2022-08-19T06:32:27;15.05;;;11.50;;
58017;SDS011;43810;50.860;19.226;2022-08-19T06:34:53;12.38;;;10.73;;
58017;SDS011;43810;50.860;19.226;2022-08-19T06:37:20;16.67;;;11.35;;
58017;SDS011;43810;50.860;19.226;2022-08-19T06:39:47;13.95;;;11.73;;
58017;SDS011;43810;50.860;19.226;2022-08-19T06:42:12;12.80;;;11.10;;
58017;SDS011;43810;50.860;19.226;2022-08-19T06:44:42;15.20;;;10.93;;
58017;SDS011;43810;50.860;19.226;2022-08-19T06:47:08;13.73;;;10.15;;
58017;SDS011;43810;50.860;19.226;2022-08-19T06:49:34;15.93;;;10.82;;
58017;SDS011;43810;50.860;19.226;2022-08-19T06:52:01;15.52;;;10.73;;
58017;SDS011;43810;50.860;19.226;2022-08-19T06:54:26;14.27;;;10.75;;
58017;SDS011;43810;50.860;19.226;2022-08-19T06:56:53;18.13;;;10.98;;
58017;SDS011;43810;50.860;19.226;2022-08-19T06:59:20;11.75;;;10.45;;
58017;SDS011;43810;50.860;19.226;2022-08-19T07:01:47;12.70;;;10.98;;
58017;SDS011;43810;50.860;19.226;2022-08-19T07:04:15;14.35;;;10.45;;
58017;SDS011;43810;50.860;19.226;2022-08-19T07:06:41;11.57;;;9.85;;
58017;SDS011;43810;50.860;19.226;2022-08-19T07:09:07;12.43;;;11.13;;
58017;SDS011;43810;50.860;19.226;2022-08-19T07:11:33;17.08;;;10.98;;
58017;SDS011;43810;50.860;19.226;2022-08-19T07:13:59;14.13;;;10.23;;
58017;SDS011;43810;50.860;19.226;2022-08-19T07:16:25;14.88;;;10.30;;
58017;SDS011;43810;50.860;19.226;2022-08-19T07:18:51;13.55;;;11.02;;
58017;SDS011;43810;50.860;19.226;2022-08-19T07:21:22;11.95;;;10.73;;
58017;SDS011;43810;50.860;19.226;2022-08-19T07:23:49;14.65;;;10.77;;
58017;SDS011;43810;50.860;19.226;2022-08-19T07:26:16;17.00;;;10.52;;
58017;SDS011;43810;50.860;19.226;2022-08-19T07:28:42;13.20;;;10.40;;
58017;SDS011;43810;50.860;19.226;2022-08-19T07:31:12;12.52;;;10.88;;
58017;SDS011;43810;50.860;19.226;2022-08-19T07:33:38;14.75;;;10.30;;
58017;SDS011;43810;50.860;19.226;2022-08-19T07:36:06;15.07;;;10.75;;
58017;SDS011;43810;50.860;19.226;2022-08-19T07:38:32;12.20;;;10.75;;
58017;SDS011;43810;50.860;19.226;2022-08-19T07:40:58;15.32;;;11.05;;
58017;SDS011;43810;50.860;19.226;2022-08-19T07:43:24;16.50;;;11.52;;
58017;SDS011;43810;50.860;19.226;2022-08-19T07:45:52;16.70;;;10.52;;
58017;SDS011;43810;50.860;19.226;2022-08-19T07:48:18;19.05;;;10.57;;
58017;SDS011;43810;50.860;19.226;2022-08-19T07:50:44;14.18;;;9.48;;
58017;SDS011;43810;50.860;19.226;2022-08-19T07:53:10;16.27;;;9.77;;
58017;SDS011;43810;50.860;19.226;2022-08-19T07:55:37;19.30;;;9.70;;
58017;SDS011;43810;50.860;19.226;2022-08-19T07:58:03;14.90;;;10.20;;
58017;SDS011;43810;50.860;19.226;2022-08-19T08:00:30;15.13;;;10.32;;
58017;SDS011;43810;50.860;19.226;2022-08-19T08:02:55;13.55;;;10.02;;
58017;SDS011;43810;50.860;19.226;2022-08-19T08:05:22;12.75;;;10.10;;
58017;SDS011;43810;50.860;19.226;2022-08-19T08:08:06;17.83;;;9.93;;
58017;SDS011;43810;50.860;19.226;2022-08-19T08:10:50;20.02;;;10.27;;
58017;SDS011;43810;50.860;19.226;2022-08-19T08:13:15;17.77;;;10.80;;
58017;SDS011;43810;50.860;19.226;2022-08-19T08:15:41;13.32;;;10.35;;
58017;SDS011;43810;50.860;19.226;2022-08-19T08:18:07;17.70;;;10.48;;
58017;SDS011;43810;50.860;19.226;2022-08-19T08:20:32;14.15;;;10.88;;
58017;SDS011;43810;50.860;19.226;2022-08-19T08:22:58;11.43;;;10.20;;
58017;SDS011;43810;50.860;19.226;2022-08-19T08:25:50;14.60;;;10.40;;
58017;SDS011;43810;50.860;19.226;2022-08-19T08:28:17;12.95;;;10.70;;
58017;SDS011;43810;50.860;19.226;2022-08-19T08:30:42;12.98;;;10.43;;
58017;SDS011;43810;50.860;19.226;2022-08-19T08:33:09;13.18;;;10.85;;
58017;SDS011;43810;50.860;19.226;2022-08-19T08:35:35;13.40;;;10.65;;
58017;SDS011;43810;50.860;19.226;2022-08-19T08:38:00;13.80;;;10.75;;
58017;SDS011;43810;50.860;19.226;2022-08-19T08:42:58;14.77;;;11.55;;
58017;SDS011;43810;50.860;19.226;2022-08-19T08:47:53;16.05;;;10.98;;
58017;SDS011;43810;50.860;19.226;2022-08-19T08:50:29;16.27;;;11.80;;
58017;SDS011;43810;50.860;19.226;2022-08-19T08:52:56;11.65;;;10.38;;
58017;SDS011;43810;50.860;19.226;2022-08-19T08:55:23;14.98;;;10.50;;
58017;SDS011;43810;50.860;19.226;2022-08-19T08:57:52;14.15;;;9.98;;
58017;SDS011;43810;50.860;19.226;2022-08-19T09:00:24;11.40;;;10.10;;
58017;SDS011;43810;50.860;19.226;2022-08-19T09:02:52;15.60;;;9.95;;
58017;SDS011;43810;50.860;19.226;2022-08-19T09:05:18;11.23;;;10.13;;
58017;SDS011;43810;50.860;19.226;2022-08-19T09:10:51;10.60;;;9.50;;
58017;SDS011;43810;50.860;19.226;2022-08-19T09:15:45;11.95;;;9.00;;
58017;SDS011;43810;50.860;19.226;2022-08-19T09:18:13;11.38;;;9.80;;
58017;SDS011;43810;50.860;19.226;2022-08-19T09:20:39;15.38;;;9.52;;
58017;SDS011;43810;50.860;19.226;2022-08-19T09:23:04;11.60;;;9.23;;
58017;SDS011;43810;50.860;19.226;2022-08-19T09:25:30;13.02;;;9.25;;
58017;SDS011;43810;50.860;19.226;2022-08-19T09:27:57;11.63;;;8.93;;
58017;SDS011;43810;50.860;19.226;2022-08-19T09:30:28;11.02;;;8.38;;
58017;SDS011;43810;50.860;19.226;2022-08-19T09:32:54;12.93;;;8.77;;
58017;SDS011;43810;50.860;19.226;2022-08-19T09:35:21;12.30;;;9.07;;
58017;SDS011;43810;50.860;19.226;2022-08-19T09:37:47;15.60;;;8.70;;
58017;SDS011;43810;50.860;19.226;2022-08-19T09:40:12;8.98;;;7.70;;
58017;SDS011;43810;50.860;19.226;2022-08-19T09:42:38;11.85;;;7.90;;
58017;SDS011;43810;50.860;19.226;2022-08-19T09:45:04;12.30;;;8.35;;
58017;SDS011;43810;50.860;19.226;2022-08-19T09:47:30;11.43;;;8.43;;
58017;SDS011;43810;50.860;19.226;2022-08-19T09:49:55;12.73;;;8.55;;
58017;SDS011;43810;50.860;19.226;2022-08-19T09:52:21;13.45;;;8.90;;
58017;SDS011;43810;50.860;19.226;2022-08-19T09:54:46;14.65;;;8.07;;
58017;SDS011;43810;50.860;19.226;2022-08-19T09:57:12;11.38;;;8.18;;
58017;SDS011;43810;50.860;19.226;2022-08-19T09:59:38;12.75;;;8.68;;
58017;SDS011;43810;50.860;19.226;2022-08-19T10:02:04;15.65;;;8.20;;
58017;SDS011;43810;50.860;19.226;2022-08-19T10:04:30;10.98;;;7.70;;
58017;SDS011;43810;50.860;19.226;2022-08-19T10:07:14;11.57;;;7.85;;
58017;SDS011;43810;50.860;19.226;2022-08-19T10:09:40;13.00;;;7.35;;
58017;SDS011;43810;50.860;19.226;2022-08-19T10:12:06;10.88;;;6.57;;
58017;SDS011;43810;50.860;19.226;2022-08-19T10:14:32;8.80;;;6.85;;
58017;SDS011;43810;50.860;19.226;2022-08-19T10:16:57;11.68;;;7.03;;
58017;SDS011;43810;50.860;19.226;2022-08-19T10:19:25;12.77;;;6.95;;
58017;SDS011;43810;50.860;19.226;2022-08-19T10:21:51;10.32;;;6.78;;
58017;SDS011;43810;50.860;19.226;2022-08-19T10:24:16;12.43;;;6.55;;
58017;SDS011;43810;50.860;19.226;2022-08-19T10:26:42;17.35;;;6.70;;
58017;SDS011;43810;50.860;19.226;2022-08-19T10:29:10;9.63;;;6.75;;
58017;SDS011;43810;50.860;19.226;2022-08-19T10:31:37;10.15;;;6.80;;
58017;SDS011;43810;50.860;19.226;2022-08-19T10:34:02;10.70;;;6.70;;
58017;SDS011;43810;50.860;19.226;2022-08-19T10:36:32;10.48;;;6.32;;
58017;SDS011;43810;50.860;19.226;2022-08-19T10:38:58;9.32;;;6.53;;
58017;SDS011;43810;50.860;19.226;2022-08-19T10:41:27;11.40;;;6.20;;
58017;SDS011;43810;50.860;19.226;2022-08-19T10:43:57;14.52;;;6.65;;
58017;SDS011;43810;50.860;19.226;2022-08-19T10:46:23;10.55;;;5.80;;
58017;SDS011;43810;50.860;19.226;2022-08-19T10:48:49;11.98;;;5.35;;
58017;SDS011;43810;50.860;19.226;2022-08-19T10:51:15;9.95;;;5.75;;
58017;SDS011;43810;50.860;19.226;2022-08-19T10:54:00;8.43;;;5.00;;
58017;SDS011;43810;50.860;19.226;2022-08-19T10:56:26;7.18;;;5.10;;
58017;SDS011;43810;50.860;19.226;2022-08-19T10:59:10;10.55;;;5.50;;
58017;SDS011;43810;50.860;19.226;2022-08-19T11:01:37;12.68;;;5.57;;
58017;SDS011;43810;50.860;19.226;2022-08-19T11:04:03;11.65;;;5.25;;
58017;SDS011;43810;50.860;19.226;2022-08-19T11:06:31;11.10;;;5.20;;
58017;SDS011;43810;50.860;19.226;2022-08-19T11:08:57;13.25;;;5.88;;
58017;SDS011;43810;50.860;19.226;2022-08-19T11:11:22;13.52;;;5.68;;
58017;SDS011;43810;50.860;19.226;2022-08-19T11:13:49;13.05;;;5.35;;
58017;SDS011;43810;50.860;19.226;2022-08-19T11:16:16;8.43;;;5.18;;
58017;SDS011;43810;50.860;19.226;2022-08-19T11:18:43;11.50;;;5.85;;
58017;SDS011;43810;50.860;19.226;2022-08-19T11:23:35;13.07;;;5.45;;
58017;SDS011;43810;50.860;19.226;2022-08-19T11:26:00;8.32;;;5.70;;
58017;SDS011;43810;50.860;19.226;2022-08-19T11:28:27;13.95;;;6.25;;
58017;SDS011;43810;50.860;19.226;2022-08-19T11:30:53;15.10;;;6.00;;
58017;SDS011;43810;50.860;19.226;2022-08-19T11:33:19;15.30;;;5.93;;
58017;SDS011;43810;50.860;19.226;2022-08-19T11:35:44;14.88;;;5.38;;
58017;SDS011;43810;50.860;19.226;2022-08-19T11:38:10;10.60;;;4.63;;
58017;SDS011;43810;50.860;19.226;2022-08-19T11:40:36;13.73;;;5.13;;
58017;SDS011;43810;50.860;19.226;2022-08-19T11:43:02;17.10;;;5.30;;
58017;SDS011;43810;50.860;19.226;2022-08-19T11:45:28;9.82;;;5.15;;
58017;SDS011;43810;50.860;19.226;2022-08-19T11:47:54;13.07;;;5.05;;
58017;SDS011;43810;50.860;19.226;2022-08-19T11:50:20;9.90;;;5.40;;
58017;SDS011;43810;50.860;19.226;2022-08-19T11:52:46;13.20;;;5.07;;
58017;SDS011;43810;50.860;19.226;2022-08-19T11:55:12;9.32;;;4.88;;
58017;SDS011;43810;50.860;19.226;2022-08-19T11:57:38;9.93;;;4.78;;
58017;SDS011;43810;50.860;19.226;2022-08-19T12:00:06;13.60;;;4.97;;
58017;SDS011;43810;50.860;19.226;2022-08-19T12:02:32;6.68;;;4.70;;
58017;SDS011;43810;50.860;19.226;2022-08-19T12:04:58;8.38;;;4.80;;
58017;SDS011;43810;50.860;19.226;2022-08-19T12:07:24;9.93;;;5.03;;
58017;SDS011;43810;50.860;19.226;2022-08-19T12:09:50;11.63;;;6.03;;
58017;SDS011;43810;50.860;19.226;2022-08-19T12:12:16;13.13;;;6.00;;
58017;SDS011;43810;50.860;19.226;2022-08-19T12:14:41;8.32;;;5.25;;
58017;SDS011;43810;50.860;19.226;2022-08-19T12:17:06;12.88;;;4.95;;
58017;SDS011;43810;50.860;19.226;2022-08-19T12:19:36;10.65;;;5.65;;
58017;SDS011;43810;50.860;19.226;2022-08-19T12:22:01;9.18;;;5.65;;
58017;SDS011;43810;50.860;19.226;2022-08-19T12:24:30;8.73;;;5.45;;
58017;SDS011;43810;50.860;19.226;2022-08-19T12:26:57;11.07;;;5.60;;
58017;SDS011;43810;50.860;19.226;2022-08-19T12:29:23;13.43;;;5.82;;
58017;SDS011;43810;50.860;19.226;2022-08-19T12:31:53;10.43;;;5.43;;
58017;SDS011;43810;50.860;19.226;2022-08-19T12:34:20;13.02;;;6.45;;
58017;SDS011;43810;50.860;19.226;2022-08-19T12:36:45;13.48;;;6.20;;
58017;SDS011;43810;50.860;19.226;2022-08-19T12:39:11;9.02;;;5.85;;
58017;SDS011;43810;50.860;19.226;2022-08-19T12:41:36;10.98;;;5.93;;
58017;SDS011;43810;50.860;19.226;2022-08-19T12:44:02;11.68;;;5.82;;
58017;SDS011;43810;50.860;19.226;2022-08-19T12:46:28;11.18;;;5.53;;
58017;SDS011;43810;50.860;19.226;2022-08-19T12:48:54;9.60;;;5.82;;
58017;SDS011;43810;50.860;19.226;2022-08-19T12:51:19;8.50;;;5.85;;
58017;SDS011;43810;50.860;19.226;2022-08-19T12:53:45;12.75;;;6.22;;
58017;SDS011;43810;50.860;19.226;2022-08-19T12:56:11;13.05;;;5.88;;
58017;SDS011;43810;50.860;19.226;2022-08-19T12:58:39;16.05;;;5.90;;
58017;SDS011;43810;50.860;19.226;2022-08-19T13:01:12;10.05;;;5.80;;
58017;SDS011;43810;50.860;19.226;2022-08-19T13:03:38;13.48;;;5.78;;
58017;SDS011;43810;50.860;19.226;2022-08-19T13:06:03;9.48;;;5.38;;
58017;SDS011;43810;50.860;19.226;2022-08-19T13:08:28;8.10;;;5.95;;
58017;SDS011;43810;50.860;19.226;2022-08-19T13:10:54;13.98;;;6.35;;
58017;SDS011;43810;50.860;19.226;2022-08-19T13:13:20;18.17;;;6.25;;
58017;SDS011;43810;50.860;19.226;2022-08-19T13:15:46;11.40;;;6.18;;
58017;SDS011;43810;50.860;19.226;2022-08-19T13:18:12;14.75;;;5.95;;
58017;SDS011;43810;50.860;19.226;2022-08-19T13:20:38;17.10;;;6.40;;
58017;SDS011;43810;50.860;19.226;2022-08-19T13:23:06;11.35;;;6.05;;
58017;SDS011;43810;50.860;19.226;2022-08-19T13:25:31;10.18;;;5.63;;
58017;SDS011;43810;50.860;19.226;2022-08-19T13:27:57;11.05;;;6.15;;
58017;SDS011;43810;50.860;19.226;2022-08-19T13:30:23;13.68;;;6.50;;
58017;SDS011;43810;50.860;19.226;2022-08-19T13:33:07;12.65;;;5.68;;
58017;SDS011;43810;50.860;19.226;2022-08-19T13:35:37;8.45;;;5.65;;
58017;SDS011;43810;50.860;19.226;2022-08-19T13:38:03;13.98;;;5.80;;
58017;SDS011;43810;50.860;19.226;2022-08-19T13:40:31;11.25;;;5.28;;
58017;SDS011;43810;50.860;19.226;2022-08-19T13:42:59;12.98;;;6.20;;
58017;SDS011;43810;50.860;19.226;2022-08-19T13:45:26;16.10;;;5.82;;
58017;SDS011;43810;50.860;19.226;2022-08-19T13:47:53;15.95;;;5.40;;
58017;SDS011;43810;50.860;19.226;2022-08-19T13:50:21;12.90;;;5.75;;
58017;SDS011;43810;50.860;19.226;2022-08-19T13:52:47;12.70;;;5.97;;
58017;SDS011;43810;50.860;19.226;2022-08-19T13:55:13;10.77;;;5.18;;
58017;SDS011;43810;50.860;19.226;2022-08-19T13:57:39;15.63;;;6.00;;
58017;SDS011;43810;50.860;19.226;2022-08-19T14:00:23;11.45;;;5.25;;
58017;SDS011;43810;50.860;19.226;2022-08-19T14:02:50;16.73;;;6.00;;
58017;SDS011;43810;50.860;19.226;2022-08-19T14:05:17;11.88;;;5.88;;
58017;SDS011;43810;50.860;19.226;2022-08-19T14:07:43;12.52;;;5.30;;
58017;SDS011;43810;50.860;19.226;2022-08-19T14:10:10;14.05;;;5.47;;
58017;SDS011;43810;50.860;19.226;2022-08-19T14:12:36;15.32;;;6.07;;
58017;SDS011;43810;50.860;19.226;2022-08-19T14:15:02;10.15;;;5.60;;
58017;SDS011;43810;50.860;19.226;2022-08-19T14:17:28;12.27;;;6.00;;
58017;SDS011;43810;50.860;19.226;2022-08-19T14:20:00;13.40;;;6.72;;
58017;SDS011;43810;50.860;19.226;2022-08-19T14:22:29;17.42;;;6.93;;
58017;SDS011;43810;50.860;19.226;2022-08-19T14:24:56;10.02;;;6.13;;
58017;SDS011;43810;50.860;19.226;2022-08-19T14:27:22;12.90;;;6.43;;
58017;SDS011;43810;50.860;19.226;2022-08-19T14:29:49;13.60;;;6.40;;